createdAt,value
2022-08-19T00:00:27.507Z,4.00
2022-08-19T00:03:40.767Z,7.68
2022-08-19T00:06:46.484Z,4.10
2022-08-19T00:09:49.692Z,4.82
2022-08-19T00:12:52.896Z,8.90
2022-08-19T00:15:57.054Z,5.72
2022-08-19T00:19:00.899Z,6.10
2022-08-19T00:22:04.497Z,6.70
2022-08-19T00:25:08.738Z,3.30
2022-08-19T00:28:13.286Z,7.82
2022-08-19T00:31:17.508Z,8.32
2022-08-19T00:34:20.576Z,7.30
2022-08-19T00:37:27.303Z,13.65
2022-08-19T00:40:31.764Z,7.38
2022-08-19T00:43:35.122Z,8.07
2022-08-19T00:46:55.211Z,8.77
2022-08-19T00:50:02.069Z,9.52
2022-08-19T00:53:05.442Z,9.43
2022-08-19T00:56:09.573Z,11.93
2022-08-19T00:59:13.415Z,9.05
2022-08-19T01:02:37.709Z,12.13
2022-08-19T01:05:43.415Z,8.85
2022-08-19T01:08:46.708Z,10.35
2022-08-19T01:11:53.553Z,11.15
2022-08-19T01:14:57.712Z,11.97
2022-08-19T01:18:07.656Z,10.50
2022-08-19T01:21:17.379Z,8.55
2022-08-19T01:24:21.985Z,8.18
2022-08-19T01:27:25.218Z,9.70
2022-08-19T01:30:32.063Z,10.25
2022-08-19T01:33:35.561Z,7.93
2022-08-19T01:36:46.903Z,8.45
2022-08-19T01:39:50.220Z,6.38
2022-08-19T01:42:54.715Z,6.10
2022-08-19T01:45:57.984Z,7.32
2022-08-19T01:49:01.313Z,8.07
2022-08-19T01:52:06.478Z,9.07
2022-08-19T01:55:13.735Z,7.40
2022-08-19T01:58:21.955Z,7.60
2022-08-19T02:01:25.567Z,8.52
2022-08-19T02:04:35.188Z,7.05
2022-08-19T02:07:41.365Z,8.15
2022-08-19T02:10:45.045Z,7.43
2022-08-19T02:13:48.352Z,8.60
2022-08-19T02:16:51.497Z,8.73
2022-08-19T02:19:54.391Z,12.52
2022-08-19T02:22:57.905Z,9.30
2022-08-19T02:26:01.784Z,6.20
2022-08-19T02:29:05.414Z,8.23
2022-08-19T02:32:08.833Z,7.70
2022-08-19T02:35:13.545Z,7.23
2022-08-19T02:38:28.569Z,7.40
2022-08-19T02:41:34.107Z,8.43
2022-08-19T02:44:37.086Z,8.13
2022-08-19T02:47:40.597Z,8.20
2022-08-19T02:50:53.160Z,9.13
2022-08-19T02:53:57.995Z,9.38
2022-08-19T02:57:00.877Z,11.90
2022-08-19T03:00:08.560Z,11.93
2022-08-19T03:03:11.747Z,14.07
2022-08-19T03:06:16.874Z,14.02
2022-08-19T03:09:21.392Z,16.02
2022-08-19T03:12:24.585Z,14.18
2022-08-19T03:15:27.774Z,16.52
2022-08-19T03:18:31.107Z,14.60
2022-08-19T03:21:36.022Z,14.80
2022-08-19T03:24:39.504Z,13.40
2022-08-19T03:27:42.592Z,14.07
2022-08-19T03:31:00.154Z,13.10
2022-08-19T03:34:04.999Z,12.15
2022-08-19T03:37:13.453Z,18.20
2022-08-19T03:40:16.799Z,14.90
2022-08-19T03:43:20.113Z,17.37
2022-08-19T03:46:29.910Z,16.98
2022-08-19T03:49:36.227Z,14.65
2022-08-19T03:52:40.608Z,12.27
2022-08-19T03:55:48.767Z,16.00
2022-08-19T03:58:51.840Z,13.48
2022-08-19T04:01:57.455Z,15.70
2022-08-19T04:05:00.468Z,12.57
2022-08-19T04:08:08.670Z,15.88
2022-08-19T04:11:21.993Z,16.70
2022-08-19T04:14:45.476Z,15.82
2022-08-19T04:17:48.668Z,19.67
2022-08-19T04:20:51.887Z,22.38
2022-08-19T04:23:56.608Z,19.60
2022-08-19T04:27:01.826Z,19.25
2022-08-19T04:30:05.769Z,25.83
2022-08-19T04:33:10.749Z,24.25
2022-08-19T04:36:21.273Z,23.17
2022-08-19T04:39:48.937Z,20.42
2022-08-19T04:42:52.397Z,23.17
2022-08-19T04:45:56.862Z,27.23
2022-08-19T04:49:13.010Z,23.65
2022-08-19T04:52:17.105Z,24.17
2022-08-19T04:55:20.463Z,26.35
2022-08-19T04:58:25.958Z,24.98
2022-08-19T05:01:30.770Z,29.65
2022-08-19T05:04:34.619Z,31.67
2022-08-19T05:07:37.691Z,26.70
2022-08-19T05:10:41.946Z,28.67
2022-08-19T05:13:45.942Z,24.23
2022-08-19T05:16:49.203Z,24.95
2022-08-19T05:20:10.650Z,26.67
2022-08-19T05:23:21.856Z,24.65
2022-08-19T05:26:29.874Z,25.48
2022-08-19T05:29:36.499Z,29.50
2022-08-19T05:32:41.036Z,24.85
2022-08-19T05:35:45.503Z,28.08
2022-08-19T05:38:49.005Z,32.70
2022-08-19T05:42:08.064Z,33.58
2022-08-19T05:45:11.472Z,39.33
2022-08-19T05:48:15.277Z,34.80
2022-08-19T05:51:18.435Z,35.23
2022-08-19T05:54:22.667Z,37.78
2022-08-19T05:57:26.359Z,41.83
2022-08-19T06:00:32.481Z,48.97
2022-08-19T06:03:38.487Z,44.22
2022-08-19T06:06:41.937Z,40.40
2022-08-19T06:09:58.973Z,45.20
2022-08-19T06:13:04.155Z,49.38
2022-08-19T06:16:07.214Z,50.65
2022-08-19T06:19:18.864Z,49.97
2022-08-19T06:22:21.962Z,46.75
2022-08-19T06:25:30.050Z,48.80
2022-08-19T06:28:34.560Z,51.92
2022-08-19T06:31:41.510Z,46.70
2022-08-19T06:34:45.178Z,44.28
2022-08-19T06:37:48.592Z,49.30
2022-08-19T06:40:51.685Z,50.53
2022-08-19T06:43:56.468Z,56.33
2022-08-19T06:46:59.559Z,48.75
2022-08-19T06:50:05.363Z,43.70
2022-08-19T06:53:08.783Z,53.15
2022-08-19T06:56:12.008Z,51.65
2022-08-19T06:59:19.446Z,53.92
2022-08-19T07:02:27.204Z,53.90
2022-08-19T07:05:30.338Z,53.50
2022-08-19T07:08:35.321Z,51.95
2022-08-19T07:11:38.489Z,53.80
2022-08-19T07:14:43.118Z,47.27
2022-08-19T07:17:46.728Z,55.90
2022-08-19T07:21:10.197Z,50.63
2022-08-19T07:24:13.538Z,54.67
2022-08-19T07:27:17.316Z,41.53
2022-08-19T07:30:20.374Z,48.90
2022-08-19T07:33:24.125Z,46.60
2022-08-19T07:36:32.681Z,48.60
2022-08-19T07:39:38.236Z,45.83
2022-08-19T07:42:42.346Z,40.47
2022-08-19T07:48:51.268Z,35.70
2022-08-19T07:51:59.102Z,38.72
2022-08-19T07:55:04.809Z,35.13
2022-08-19T07:58:08.466Z,38.78
2022-08-19T08:01:17.599Z,32.53
2022-08-19T08:04:39.497Z,33.72
2022-08-19T08:08:01.534Z,32.60
2022-08-19T08:11:07.725Z,28.02
2022-08-19T08:14:29.475Z,30.73
2022-08-19T08:17:49.837Z,30.13
2022-08-19T08:20:57.068Z,24.05
2022-08-19T08:27:11.135Z,26.35
2022-08-19T08:30:23.067Z,21.15
2022-08-19T08:33:33.493Z,20.13
2022-08-19T08:36:45.979Z,20.23
2022-08-19T08:39:49.017Z,19.45
2022-08-19T08:43:11.120Z,19.43
2022-08-19T08:46:31.505Z,18.60
2022-08-19T08:49:51.315Z,17.05
2022-08-19T08:52:57.688Z,18.45
2022-08-19T08:56:04.587Z,16.42
2022-08-19T08:59:15.610Z,18.60
2022-08-19T09:02:19.540Z,16.60
2022-08-19T09:05:26.150Z,14.40
2022-08-19T09:08:41.491Z,15.32
2022-08-19T09:12:16.425Z,16.10
2022-08-19T09:15:28.863Z,14.93
2022-08-19T09:18:42.586Z,16.92
2022-08-19T09:21:46.662Z,13.98
2022-08-19T09:24:53.316Z,11.60
2022-08-19T09:28:02.685Z,13.77
2022-08-19T09:31:08.450Z,9.98
2022-08-19T09:34:21.194Z,10.82
2022-08-19T09:37:26.174Z,11.65
2022-08-19T09:40:32.640Z,7.55
2022-08-19T09:43:44.279Z,10.23
2022-08-19T09:46:48.404Z,11.50
2022-08-19T09:49:51.885Z,11.00
2022-08-19T09:52:57.339Z,17.45
2022-08-19T09:56:00.974Z,10.18
2022-08-19T09:59:07.752Z,9.85
2022-08-19T10:02:12.104Z,9.17
2022-08-19T10:05:34.950Z,10.73
2022-08-19T10:08:41.235Z,9.80
2022-08-19T10:11:55.029Z,19.65
2022-08-19T10:14:58.394Z,13.18
2022-08-19T10:18:02.427Z,11.52
2022-08-19T10:21:11.669Z,14.02
2022-08-19T10:24:15.648Z,11.90
2022-08-19T10:27:22.144Z,16.13
2022-08-19T10:30:25.931Z,16.33
2022-08-19T10:33:52.987Z,12.53
2022-08-19T10:36:56.268Z,10.25
2022-08-19T10:40:00.213Z,13.00
2022-08-19T10:43:03.731Z,11.50
2022-08-19T10:46:14.252Z,11.10
2022-08-19T10:49:20.486Z,13.07
2022-08-19T10:52:35.592Z,10.77
2022-08-19T10:56:00.483Z,10.52
2022-08-19T10:59:05.841Z,10.73
2022-08-19T11:02:11.791Z,10.23
2022-08-19T11:05:15.866Z,12.32
2022-08-19T11:08:23.646Z,10.63
2022-08-19T11:11:29.639Z,11.77
2022-08-19T11:14:35.188Z,9.63
2022-08-19T11:17:44.732Z,9.60
2022-08-19T11:20:48.769Z,11.18
2022-08-19T11:23:54.956Z,12.57
2022-08-19T11:27:05.804Z,8.60
2022-08-19T11:30:12.908Z,9.23
2022-08-19T11:33:16.903Z,10.75
2022-08-19T11:36:22.634Z,12.00
2022-08-19T11:39:29.353Z,11.52
2022-08-19T11:42:51.380Z,11.38
2022-08-19T11:45:56.834Z,7.05
2022-08-19T11:49:01.898Z,9.43
2022-08-19T11:52:05.224Z,15.43
2022-08-19T11:55:09.179Z,8.23
2022-08-19T12:01:24.448Z,11.07
2022-08-19T12:04:27.924Z,6.72
2022-08-19T12:07:34.303Z,7.47
2022-08-19T12:10:38.129Z,8.35
2022-08-19T12:13:43.642Z,12.55
2022-08-19T12:16:52.525Z,6.72
2022-08-19T12:19:56.112Z,12.32
2022-08-19T12:22:59.607Z,13.10
2022-08-19T12:26:02.887Z,5.73
2022-08-19T12:29:06.079Z,2.90
2022-08-19T12:32:10.458Z,7.47
2022-08-19T12:35:15.854Z,4.03
2022-08-19T12:38:19.737Z,5.47
2022-08-19T12:44:28.775Z,5.63
2022-08-19T12:47:37.196Z,3.05
2022-08-19T12:50:46.844Z,7.88
2022-08-19T12:53:51.134Z,3.63
2022-08-19T12:59:57.303Z,3.88
2022-08-19T13:03:01.222Z,3.57
2022-08-19T13:06:05.224Z,5.32
2022-08-19T13:09:08.327Z,2.42
2022-08-19T13:12:14.327Z,2.93
2022-08-19T13:15:24.127Z,3.67
2022-08-19T13:18:27.745Z,3.53
2022-08-19T13:21:32.712Z,2.93
2022-08-19T13:24:37.965Z,4.07
2022-08-19T13:27:41.410Z,6.20
2022-08-19T13:31:07.358Z,5.20
2022-08-19T13:34:11.764Z,4.75
2022-08-19T13:37:15.324Z,3.33
2022-08-19T13:40:24.094Z,5.00
2022-08-19T13:43:28.111Z,4.30
2022-08-19T13:46:32.042Z,5.13
2022-08-19T13:49:37.534Z,7.45
2022-08-19T13:52:41.462Z,10.43
2022-08-19T13:55:46.304Z,2.33
2022-08-19T13:58:49.768Z,7.35
2022-08-19T14:01:53.050Z,4.50
2022-08-19T14:04:56.315Z,6.60
2022-08-19T14:08:01.751Z,3.83
2022-08-19T14:11:06.762Z,6.90
2022-08-19T14:14:14.475Z,3.72
2022-08-19T14:17:19.860Z,4.00
2022-08-19T14:20:25.944Z,4.07
2022-08-19T14:23:30.399Z,3.28
2022-08-19T14:26:33.949Z,1.98
2022-08-19T14:29:37.274Z,3.10
2022-08-19T14:32:40.816Z,2.78
2022-08-19T14:35:46.008Z,5.77
2022-08-19T14:38:49.928Z,2.95
2022-08-19T14:41:52.958Z,3.20
2022-08-19T14:45:00.850Z,5.53
2022-08-19T14:48:08.353Z,3.22
2022-08-19T14:51:25.549Z,4.88
2022-08-19T14:54:29.695Z,2.47
2022-08-19T14:57:34.150Z,2.78
2022-08-19T15:00:37.402Z,3.23
2022-08-19T15:03:42.163Z,2.90
2022-08-19T15:06:45.248Z,3.97
2022-08-19T15:09:52.061Z,2.23
2022-08-19T15:12:55.861Z,3.72
2022-08-19T15:15:59.453Z,3.20
2022-08-19T15:19:02.520Z,3.72
2022-08-19T15:22:06.141Z,4.67
2022-08-19T15:25:12.624Z,6.57
2022-08-19T15:28:18.601Z,5.20
2022-08-19T15:31:25.552Z,6.72
2022-08-19T15:34:32.653Z,4.38
2022-08-19T15:37:37.046Z,6.68
2022-08-19T15:40:42.550Z,3.08
2022-08-19T15:43:45.811Z,3.30
2022-08-19T15:46:49.699Z,2.42
2022-08-19T15:49:55.759Z,3.85
2022-08-19T15:53:06.249Z,2.80
2022-08-19T15:56:11.055Z,2.50
2022-08-19T15:59:33.756Z,2.25
2022-08-19T16:03:02.585Z,1.42
2022-08-19T16:06:25.202Z,4.10
2022-08-19T16:09:31.157Z,2.00
2022-08-19T16:12:34.620Z,1.95
2022-08-19T16:15:38.108Z,1.47
2022-08-19T16:18:41.618Z,2.00
2022-08-19T16:21:48.072Z,1.47
2022-08-19T16:24:51.232Z,3.08
2022-08-19T16:28:08.050Z,2.53
2022-08-19T16:31:13.445Z,3.40
2022-08-19T16:34:16.694Z,5.50
2022-08-19T16:37:21.703Z,2.58
2022-08-19T16:40:25.365Z,2.42
2022-08-19T16:43:31.783Z,2.10
2022-08-19T16:46:35.858Z,2.95
2022-08-19T16:49:53.328Z,2.00
2022-08-19T16:52:59.554Z,2.58
2022-08-19T16:56:03.080Z,1.75
2022-08-19T16:59:06.964Z,1.67
2022-08-19T17:02:10.137Z,1.88
2022-08-19T17:05:13.464Z,2.17
2022-08-19T17:08:18.080Z,2.22
2022-08-19T17:11:23.078Z,1.45
2022-08-19T17:14:26.722Z,2.15
2022-08-19T17:17:30.971Z,1.15
2022-08-19T17:23:43.103Z,3.08
2022-08-19T17:26:47.600Z,1.15
2022-08-19T17:29:50.773Z,1.40
2022-08-19T17:32:54.965Z,1.75
2022-08-19T17:35:58.253Z,0.98
2022-08-19T17:39:04.483Z,1.17
2022-08-19T17:42:08.242Z,1.20
2022-08-19T17:45:13.048Z,1.48
2022-08-19T17:48:16.661Z,0.93
2022-08-19T17:51:25.680Z,0.73
2022-08-19T17:54:33.783Z,0.43
2022-08-19T17:57:41.876Z,0.73
2022-08-19T18:00:53.243Z,1.23
2022-08-19T18:03:58.562Z,0.60
2022-08-19T18:07:04.549Z,0.70
2022-08-19T18:10:08.657Z,1.23
2022-08-19T18:13:17.447Z,1.77
2022-08-19T18:16:22.380Z,3.13
2022-08-19T18:19:30.130Z,1.15
2022-08-19T18:22:48.770Z,1.98
2022-08-19T18:25:52.742Z,2.00
2022-08-19T18:28:57.312Z,2.33
2022-08-19T18:32:00.708Z,1.65
2022-08-19T18:35:11.421Z,1.98
2022-08-19T18:38:35.987Z,3.17
2022-08-19T18:45:19.962Z,3.83
2022-08-19T18:48:42.131Z,3.85
2022-08-19T18:51:45.701Z,3.25
2022-08-19T18:54:48.945Z,4.32
2022-08-19T18:57:53.089Z,2.33
2022-08-19T19:00:58.819Z,3.70
2022-08-19T19:04:06.117Z,2.53
2022-08-19T19:07:09.522Z,2.67
2022-08-19T19:10:13.661Z,2.35
2022-08-19T19:13:17.113Z,4.00
2022-08-19T19:16:24.421Z,4.32
2022-08-19T19:19:29.351Z,3.47
2022-08-19T19:25:50.303Z,3.97
2022-08-19T19:28:54.980Z,2.72
2022-08-19T19:31:58.181Z,4.07
2022-08-19T19:35:01.330Z,3.08
2022-08-19T19:38:04.792Z,3.73
2022-08-19T19:41:08.138Z,4.90
2022-08-19T19:44:30.597Z,4.40
2022-08-19T19:47:34.703Z,5.38
2022-08-19T19:50:37.940Z,5.28
2022-08-19T19:53:41.794Z,4.38
2022-08-19T19:56:46.049Z,6.03
2022-08-19T19:59:51.386Z,7.82
2022-08-19T20:02:56.349Z,6.20
2022-08-19T20:12:15.880Z,6.85
2022-08-19T20:15:21.380Z,6.40
2022-08-19T20:18:25.256Z,9.02
2022-08-19T20:21:34.506Z,6.47
2022-08-19T20:24:39.403Z,8.63
2022-08-19T20:27:43.989Z,7.55
2022-08-19T20:30:48.241Z,6.30
2022-08-19T20:33:51.615Z,5.55
2022-08-19T20:36:54.876Z,9.43
2022-08-19T20:39:58.270Z,5.13
2022-08-19T20:43:02.249Z,7.40
2022-08-19T20:46:05.941Z,6.50
2022-08-19T20:49:09.726Z,6.53
2022-08-19T20:55:16.954Z,11.57
2022-08-19T20:58:25.335Z,8.63
2022-08-19T21:01:28.545Z,9.88
2022-08-19T21:04:32.458Z,7.70
2022-08-19T21:07:39.077Z,7.95
2022-08-19T21:10:44.720Z,9.95
2022-08-19T21:13:49.220Z,14.02
2022-08-19T21:16:52.833Z,11.20
2022-08-19T21:19:56.172Z,8.60
2022-08-19T21:23:04.754Z,8.40
2022-08-19T21:26:09.278Z,10.75
2022-08-19T21:29:12.442Z,9.90
2022-08-19T21:32:15.777Z,13.27
2022-08-19T21:35:19.881Z,10.50
2022-08-19T21:38:23.290Z,9.35
2022-08-19T21:41:26.825Z,15.32
2022-08-19T21:44:30.187Z,7.35
2022-08-19T21:47:33.488Z,7.00
2022-08-19T21:50:37.006Z,11.40
2022-08-19T21:53:40.500Z,11.45
2022-08-19T21:56:47.626Z,9.30
2022-08-19T22:02:57.011Z,10.03
2022-08-19T22:06:00.330Z,9.82
2022-08-19T22:09:04.067Z,13.85
2022-08-19T22:12:10.050Z,8.82
2022-08-19T22:15:15.667Z,10.20
2022-08-19T22:18:22.057Z,8.48
2022-08-19T22:21:39.826Z,11.03
2022-08-19T22:24:44.250Z,10.38
2022-08-19T22:27:47.650Z,12.68
2022-08-19T22:30:51.387Z,12.30
2022-08-19T22:33:54.521Z,11.20
2022-08-19T22:36:58.148Z,11.68
2022-08-19T22:40:05.581Z,9.93
2022-08-19T22:43:16.454Z,13.07
2022-08-19T22:46:20.210Z,12.40
2022-08-19T22:49:23.972Z,11.35
2022-08-19T22:52:27.906Z,12.70
2022-08-19T22:55:31.321Z,12.52
2022-08-19T22:58:36.332Z,6.00
2022-08-19T23:01:42.324Z,9.07
2022-08-19T23:04:45.710Z,16.77
2022-08-19T23:07:52.304Z,11.98
2022-08-19T23:10:56.735Z,9.30
2022-08-19T23:14:00.140Z,11.23
2022-08-19T23:17:05.295Z,9.52
2022-08-19T23:20:10.798Z,7.30
2022-08-19T23:23:18.910Z,4.50
2022-08-19T23:26:22.803Z,10.40
2022-08-19T23:29:44.867Z,9.25
2022-08-19T23:32:48.356Z,10.68
2022-08-19T23:35:54.918Z,8.38
2022-08-19T23:38:59.928Z,9.65
2022-08-19T23:42:03.601Z,14.82
2022-08-19T23:45:09.396Z,9.52
2022-08-19T23:48:13.345Z,12.10
2022-08-19T23:51:17.670Z,10.90
2022-08-19T23:54:20.780Z,11.02
2022-08-19T23:57:24.237Z,10.95
